createdAt,value
2018-01-01T00:02:09.204Z,70.35
2018-01-01T00:04:36.820Z,70.64
2018-01-01T00:07:04.458Z,70.39
2018-01-01T00:09:32.104Z,70.39
2018-01-01T00:11:59.794Z,70.15
2018-01-01T00:14:27.465Z,70.41
2018-01-01T00:16:56.145Z,70.10
2018-01-01T00:19:23.811Z,70.03
2018-01-01T00:21:51.408Z,70.06
2018-01-01T00:24:19.015Z,69.77
2018-01-01T00:26:47.755Z,69.84
2018-01-01T00:29:15.426Z,70.02
2018-01-01T00:31:43.089Z,69.93
2018-01-01T00:34:10.691Z,69.63
2018-01-01T00:36:38.289Z,69.62
2018-01-01T00:39:06.019Z,69.66
2018-01-01T00:41:33.662Z,69.67
2018-01-01T00:44:01.304Z,69.59
2018-01-01T00:46:28.900Z,69.85
2018-01-01T00:48:56.613Z,69.52
2018-01-01T00:51:24.269Z,69.56
2018-01-01T00:53:52.424Z,69.47
2018-01-01T00:56:20.315Z,69.37
2018-01-01T00:58:47.918Z,69.50
2018-01-01T01:01:15.535Z,69.47
2018-01-01T01:03:43.247Z,69.67
2018-01-01T01:06:10.828Z,69.65
2018-01-01T01:08:38.468Z,69.87
2018-01-01T01:11:06.085Z,69.79
2018-01-01T01:13:34.060Z,69.68
2018-01-01T01:16:01.685Z,69.78
2018-01-01T01:18:29.341Z,69.71
2018-01-01T01:20:57.009Z,69.74
2018-01-01T01:23:24.598Z,69.69
2018-01-01T01:25:52.210Z,69.63
2018-01-01T01:28:19.843Z,69.95
2018-01-01T01:30:47.447Z,69.92
2018-01-01T01:33:15.197Z,69.91
2018-01-01T01:35:42.829Z,70.02
2018-01-01T01:38:10.510Z,69.86
2018-01-01T01:40:38.432Z,70.02
2018-01-01T01:43:06.137Z,70.17
2018-01-01T01:45:33.840Z,70.18
2018-01-01T01:48:01.531Z,70.32
2018-01-01T01:50:29.140Z,70.15
2018-01-01T01:52:56.788Z,70.22
2018-01-01T01:55:24.425Z,70.33
2018-01-01T01:57:52.286Z,70.33
2018-01-01T02:00:19.934Z,70.35
2018-01-01T02:02:47.533Z,70.30
2018-01-01T02:05:15.478Z,70.36
2018-01-01T02:07:43.102Z,70.64
2018-01-01T02:10:10.730Z,70.44
2018-01-01T02:12:38.419Z,70.13
2018-01-01T02:15:06.046Z,70.12
2018-01-01T02:17:33.672Z,69.98
2018-01-01T02:20:01.329Z,70.00
2018-01-01T02:22:28.974Z,69.82
2018-01-01T02:24:56.631Z,69.85
2018-01-01T02:27:24.250Z,69.30
2018-01-01T02:29:52.207Z,69.09
2018-01-01T02:32:31.704Z,68.80
2018-01-01T02:34:59.318Z,68.71
2018-01-01T02:37:26.956Z,68.61
2018-01-01T02:39:54.553Z,68.48
2018-01-01T02:42:22.147Z,68.24
2018-01-01T02:44:49.825Z,68.22
2018-01-01T02:47:17.412Z,67.84
2018-01-01T02:49:45.064Z,67.76
2018-01-01T02:52:12.963Z,67.05
2018-01-01T02:54:40.544Z,66.85
2018-01-01T02:57:08.170Z,66.98
2018-01-01T02:59:35.788Z,66.69
2018-01-01T03:02:03.468Z,66.69
2018-01-01T03:04:31.096Z,66.32
2018-01-01T03:06:59.138Z,66.76
2018-01-01T03:09:27.105Z,66.51
2018-01-01T03:11:54.707Z,66.59
2018-01-01T03:14:22.369Z,66.79
2018-01-01T03:16:49.981Z,66.52
2018-01-01T03:19:17.583Z,66.77
2018-01-01T03:21:45.528Z,66.82
2018-01-01T03:24:13.134Z,66.85
2018-01-01T03:26:40.752Z,67.07
2018-01-01T03:29:08.348Z,67.04
2018-01-01T03:31:35.975Z,67.12
2018-01-01T03:34:03.587Z,67.25
2018-01-01T03:36:31.180Z,67.54
2018-01-01T03:38:58.812Z,68.08
2018-01-01T03:41:26.449Z,68.37
2018-01-01T03:43:54.076Z,68.63
2018-01-01T03:46:21.709Z,68.91
2018-01-01T03:48:49.296Z,68.93
2018-01-01T03:51:17.620Z,69.55
2018-01-01T03:53:45.225Z,69.65
2018-01-01T03:56:13.121Z,69.79
2018-01-01T03:58:40.747Z,69.92
2018-01-01T04:01:08.341Z,70.14
2018-01-01T04:03:35.986Z,70.33
2018-01-01T04:06:03.578Z,70.20
2018-01-01T04:08:31.197Z,70.33
2018-01-01T04:10:59.194Z,70.57
2018-01-01T04:13:26.792Z,70.52
2018-01-01T04:15:54.465Z,70.89
2018-01-01T04:18:22.092Z,70.89
2018-01-01T04:20:49.689Z,70.94
2018-01-01T04:23:17.320Z,71.04
2018-01-01T04:25:44.929Z,70.96
2018-01-01T04:28:13.561Z,70.76
2018-01-01T04:30:41.163Z,70.95
2018-01-01T04:33:08.763Z,71.20
2018-01-01T04:35:36.384Z,71.00
2018-01-01T06:00:00.976Z,74.99
2018-01-01T06:02:28.602Z,74.67
2018-01-01T06:04:56.225Z,74.85
2018-01-01T06:07:23.840Z,75.05
2018-01-01T06:09:51.453Z,75.07
2018-01-01T06:12:19.057Z,74.32
2018-01-01T06:14:47.000Z,73.57
2018-01-01T06:17:14.635Z,71.57
2018-01-01T06:19:42.222Z,70.67
2018-01-01T06:22:09.861Z,69.98
2018-01-01T06:24:37.467Z,66.59
2018-01-01T06:27:05.133Z,66.63
2018-01-01T06:29:33.077Z,66.21
2018-01-01T06:32:00.688Z,65.72
2018-01-01T06:34:28.746Z,65.16
2018-01-01T06:36:56.336Z,64.86
2018-01-01T06:39:24.358Z,63.16
2018-01-01T06:41:51.938Z,62.70
2018-01-01T06:44:19.514Z,62.76
2018-01-01T06:46:47.140Z,60.94
2018-01-01T06:49:14.724Z,60.69
2018-01-01T06:51:42.670Z,60.83
2018-01-01T06:54:10.247Z,60.79
2018-01-01T06:56:37.843Z,60.79
2018-01-01T06:59:05.776Z,61.13
2018-01-01T07:01:33.353Z,60.67
2018-01-01T07:04:00.994Z,60.73
2018-01-01T07:06:28.642Z,60.80
2018-01-01T07:08:56.223Z,60.51
2018-01-01T07:11:23.860Z,60.74
2018-01-01T07:13:51.448Z,60.84
2018-01-01T07:16:19.079Z,61.21
2018-01-01T07:18:46.679Z,61.08
2018-01-01T07:21:14.420Z,61.52
2018-01-01T07:23:42.045Z,61.46
2018-01-01T07:26:09.646Z,61.79
2018-01-01T07:28:37.266Z,62.12
2018-01-01T07:31:04.866Z,62.35
2018-01-01T07:33:32.443Z,62.37
2018-01-01T07:36:00.051Z,62.52
2018-01-01T07:38:27.751Z,63.08
2018-01-01T07:40:55.412Z,63.64
2018-01-01T07:43:23.280Z,64.38
2018-01-01T07:45:50.872Z,64.76
2018-01-01T07:48:18.493Z,65.19
2018-01-01T07:50:46.072Z,65.20
2018-01-01T07:53:13.701Z,65.30
2018-01-01T07:55:41.312Z,65.39
2018-01-01T07:58:08.936Z,65.52
2018-01-01T08:00:36.564Z,65.44
2018-01-01T08:03:04.156Z,65.64
2018-01-01T08:05:31.786Z,65.39
2018-01-01T08:07:59.396Z,65.32
2018-01-01T08:10:27.271Z,65.33
2018-01-01T08:12:55.243Z,64.70
2018-01-01T08:15:22.840Z,65.11
2018-01-01T08:17:50.469Z,65.17
2018-01-01T08:20:18.431Z,64.76
2018-01-01T08:22:46.029Z,64.75
2018-01-01T08:25:13.642Z,65.10
2018-01-01T08:27:41.321Z,65.75
2018-01-01T08:30:08.949Z,65.86
2018-01-01T08:32:36.576Z,66.20
2018-01-01T08:35:04.177Z,66.58
2018-01-01T08:37:31.797Z,66.74
2018-01-01T08:39:59.390Z,66.75
2018-01-01T08:42:27.067Z,66.91
2018-01-01T08:44:55.063Z,66.55
2018-01-01T08:47:22.686Z,66.43
2018-01-01T08:49:50.288Z,66.60
2018-01-01T08:52:17.909Z,66.28
2018-01-01T08:54:45.540Z,65.99
2018-01-01T08:57:13.139Z,65.95
2018-01-01T08:59:40.754Z,65.80
2018-01-01T09:02:08.442Z,65.28
2018-01-01T09:04:36.022Z,65.00
2018-01-01T09:07:03.671Z,64.04
2018-01-01T09:09:31.251Z,63.93
2018-01-01T09:11:58.828Z,63.24
2018-01-01T09:14:26.883Z,62.81
2018-01-01T09:16:54.787Z,62.86
2018-01-01T09:19:22.423Z,62.20
2018-01-01T09:21:50.013Z,62.23
2018-01-01T09:24:17.877Z,61.99
2018-01-01T09:26:45.520Z,61.11
2018-01-01T09:29:13.119Z,61.12
2018-01-01T09:31:41.100Z,61.24
2018-01-01T09:34:08.694Z,60.91
2018-01-01T09:36:36.281Z,60.35
2018-01-01T09:39:03.892Z,60.25
2018-01-01T09:41:31.526Z,60.02
2018-01-01T09:43:59.152Z,60.01
2018-01-01T09:46:26.752Z,59.57
2018-01-01T09:48:54.820Z,59.71
2018-01-01T09:51:22.453Z,59.55
2018-01-01T09:53:50.086Z,59.69
2018-01-01T09:56:17.715Z,59.47
2018-01-01T09:58:45.294Z,59.56
2018-01-01T10:01:12.884Z,59.39
2018-01-01T10:06:14.414Z,59.22
2018-01-01T10:08:42.319Z,59.19
2018-01-01T10:11:11.048Z,58.86
2018-01-01T10:13:39.472Z,58.99
2018-01-01T10:16:09.096Z,58.60
2018-01-01T10:18:37.821Z,58.11
2018-01-01T10:21:05.535Z,58.68
2018-01-01T10:23:33.708Z,58.91
2018-01-01T10:26:02.305Z,59.35
2018-01-01T10:28:30.054Z,59.48
2018-01-01T10:30:57.687Z,59.75
2018-01-01T10:33:25.620Z,59.99
2018-01-01T10:35:53.318Z,59.56
2018-01-01T10:38:23.157Z,59.48
2018-01-01T10:40:50.911Z,59.53
2018-01-01T10:43:18.526Z,59.89
2018-01-01T10:45:46.174Z,59.65
2018-01-01T10:48:13.778Z,59.85
2018-01-01T10:50:41.367Z,59.93
2018-01-01T10:53:08.993Z,59.67
2018-01-01T10:55:36.612Z,59.80
2018-01-01T10:58:04.240Z,59.74
2018-01-01T11:00:31.829Z,59.14
2018-01-01T11:02:59.454Z,58.99
2018-01-01T11:05:27.425Z,58.53
2018-01-01T11:07:55.010Z,58.62
2018-01-01T11:10:22.966Z,58.46
2018-01-01T11:12:50.643Z,58.65
2018-01-01T11:15:18.239Z,58.69
2018-01-01T11:17:45.842Z,58.34
2018-01-01T11:20:13.507Z,58.44
2018-01-01T11:22:41.138Z,58.40
2018-01-01T11:25:08.904Z,58.24
2018-01-01T11:27:36.604Z,57.73
2018-01-01T11:30:04.254Z,57.79
2018-01-01T11:32:31.949Z,57.26
2018-01-01T11:34:59.580Z,57.13
2018-01-01T11:37:27.553Z,56.35
2018-01-01T11:39:55.233Z,56.06
2018-01-01T11:42:22.859Z,56.05
2018-01-01T11:44:50.484Z,56.25
2018-01-01T11:47:18.083Z,56.11
2018-01-01T11:49:45.701Z,55.66
2018-01-01T11:52:13.333Z,55.13
2018-01-01T11:54:40.953Z,55.07
2018-01-01T11:57:08.863Z,54.08
2018-01-01T11:59:36.452Z,54.81
2018-01-01T12:02:04.055Z,54.90
2018-01-01T12:04:31.803Z,55.40
2018-01-01T12:06:59.394Z,54.77
2018-01-01T12:09:27.017Z,55.10
2018-01-01T12:11:54.615Z,55.21
2018-01-01T12:14:22.270Z,55.34
2018-01-01T12:16:49.921Z,55.11
2018-01-01T12:19:17.547Z,54.53
2018-01-01T12:21:45.492Z,54.89
2018-01-01T12:24:13.090Z,54.66
2018-01-01T12:29:14.943Z,54.66
2018-01-01T12:31:42.566Z,54.43
2018-01-01T12:34:10.211Z,54.63
2018-01-01T12:36:37.806Z,53.95
2018-01-01T12:39:05.408Z,54.00
2018-01-01T12:41:33.048Z,53.95
2018-01-01T12:44:00.685Z,54.19
2018-01-01T12:46:28.350Z,54.42
2018-01-01T12:48:56.007Z,54.70
2018-01-01T12:51:23.621Z,55.15
2018-01-01T12:53:51.280Z,55.47
2018-01-01T12:56:22.353Z,55.55
2018-01-01T12:58:50.017Z,55.28
2018-01-01T13:01:17.681Z,55.62
2018-01-01T13:03:55.114Z,55.34
2018-01-01T13:06:23.185Z,54.25
2018-01-01T13:08:50.796Z,52.97
2018-01-01T13:11:18.445Z,52.04
2018-01-01T13:13:46.102Z,52.55
2018-01-01T13:16:13.806Z,52.64
2018-01-01T13:18:41.411Z,52.99
2018-01-01T13:21:09.029Z,53.19
2018-01-01T13:23:36.661Z,52.91
2018-01-01T13:26:04.276Z,53.02
2018-01-01T13:28:32.280Z,52.92
2018-01-01T13:30:59.923Z,52.46
2018-01-01T13:33:27.542Z,52.56
2018-01-01T13:35:55.169Z,52.66
2018-01-01T13:38:23.113Z,52.53
2018-01-01T13:40:52.049Z,52.49
2018-01-01T13:43:19.979Z,52.61
2018-01-01T13:45:47.661Z,52.79
2018-01-01T13:48:15.607Z,52.79
2018-01-01T13:50:43.242Z,53.10
2018-01-01T13:53:10.881Z,52.85
2018-01-01T13:55:38.906Z,52.98
2018-01-01T13:58:06.741Z,53.08
2018-01-01T14:00:34.383Z,53.15
2018-01-01T14:03:01.989Z,53.10
2018-01-01T14:05:29.969Z,53.26
2018-01-01T14:07:57.576Z,52.87
2018-01-01T14:10:25.257Z,52.98
2018-01-01T14:12:52.898Z,52.97
2018-01-01T14:15:20.516Z,53.27
2018-01-01T14:17:48.160Z,53.49
2018-01-01T14:20:15.791Z,53.73
2018-01-01T14:22:43.401Z,53.87
2018-01-01T14:25:11.407Z,54.10
2018-01-01T14:27:39.443Z,54.16
2018-01-01T14:30:07.098Z,54.84
2018-01-01T14:32:34.759Z,55.53
2018-01-01T14:35:02.361Z,55.83
2018-01-01T14:37:29.980Z,56.27
2018-01-01T14:39:57.655Z,56.67
2018-01-01T14:42:25.297Z,56.92
2018-01-01T14:44:52.914Z,56.78
2018-01-01T14:47:20.510Z,57.15
2018-01-01T14:49:48.148Z,57.59
2018-01-01T14:52:15.739Z,57.59
2018-01-01T14:54:43.367Z,57.47
2018-01-01T14:57:10.989Z,57.60
2018-01-01T14:59:38.632Z,57.51
2018-01-01T15:02:06.283Z,57.39
2018-01-01T15:04:33.899Z,57.33
2018-01-01T15:07:01.559Z,57.49
2018-01-01T15:09:30.038Z,57.17
2018-01-01T15:11:57.639Z,57.56
2018-01-01T15:14:25.328Z,57.57
2018-01-01T15:16:53.000Z,57.28
2018-01-01T15:19:20.630Z,57.49
2018-01-01T15:21:48.210Z,57.29
2018-01-01T15:24:16.318Z,57.40
2018-01-01T15:26:44.423Z,57.17
2018-01-01T15:29:12.516Z,57.44
2018-01-01T15:31:40.839Z,57.51
2018-01-01T15:34:08.443Z,57.36
2018-01-01T15:36:36.060Z,57.33
2018-01-01T15:39:03.721Z,57.42
2018-01-01T15:41:31.315Z,57.44
2018-01-01T15:43:58.986Z,57.61
2018-01-01T15:46:26.616Z,57.63
2018-01-01T15:48:54.247Z,58.17
2018-01-01T15:51:22.108Z,58.17
2018-01-01T15:53:49.748Z,58.17
2018-01-01T15:56:17.449Z,58.53
2018-01-01T15:58:45.102Z,58.75
2018-01-01T16:01:13.004Z,59.05
2018-01-01T16:03:40.662Z,59.33
2018-01-01T16:06:08.639Z,59.83
2018-01-01T16:08:36.276Z,60.18
2018-01-01T16:11:03.887Z,60.30
2018-01-01T16:13:31.489Z,60.73
2018-01-01T16:15:59.107Z,60.87
2018-01-01T16:18:26.972Z,61.13
2018-01-01T16:20:54.643Z,61.51
2018-01-01T16:23:22.245Z,61.92
2018-01-01T16:25:49.852Z,61.86
2018-01-01T16:28:17.819Z,62.32
2018-01-01T16:30:45.420Z,62.46
2018-01-01T16:33:13.115Z,62.87
2018-01-01T16:35:40.729Z,63.13
2018-01-01T16:38:08.374Z,63.12
2018-01-01T16:40:36.048Z,63.17
2018-01-01T16:43:03.685Z,63.59
2018-01-01T16:45:31.358Z,63.83
2018-01-01T16:47:59.217Z,63.94
2018-01-01T16:50:26.802Z,64.06
2018-01-01T16:52:54.748Z,64.12
2018-01-01T16:55:22.360Z,64.10
2018-01-01T16:57:50.385Z,64.49
2018-01-01T17:00:17.984Z,64.49
2018-01-01T17:02:45.605Z,64.67
2018-01-01T17:05:13.337Z,64.57
2018-01-01T17:07:40.932Z,64.55
2018-01-01T17:10:08.585Z,64.57
2018-01-01T17:12:36.457Z,64.52
2018-01-01T17:15:04.111Z,64.38
2018-01-01T17:17:31.709Z,64.52
2018-01-01T17:19:59.332Z,64.41
2018-01-01T17:22:26.989Z,64.45
2018-01-01T17:24:54.981Z,64.60
2018-01-01T17:27:22.622Z,64.77
2018-01-01T17:29:50.253Z,64.89
2018-01-01T17:32:17.844Z,64.91
2018-01-01T17:34:45.510Z,64.47
2018-01-01T17:37:13.099Z,64.52
2018-01-01T17:39:40.725Z,64.94
2018-01-01T17:42:08.388Z,64.92
2018-01-01T17:44:35.980Z,64.96
2018-01-01T17:47:03.877Z,65.04
2018-01-01T17:49:31.519Z,65.32
2018-01-01T17:51:59.484Z,65.19
2018-01-01T17:54:27.837Z,65.36
2018-01-01T17:56:55.719Z,65.51
2018-01-01T17:59:23.376Z,65.49
2018-01-01T18:01:51.016Z,65.88
2018-01-01T18:04:18.918Z,66.05
2018-01-01T18:06:46.546Z,65.80
2018-01-01T18:09:14.203Z,65.94
2018-01-01T18:11:41.866Z,66.02
2018-01-01T18:14:09.488Z,66.46
2018-01-01T18:16:37.088Z,66.30
2018-01-01T18:19:04.721Z,66.34
2018-01-01T18:21:32.352Z,66.39
2018-01-01T18:24:00.021Z,66.61
2018-01-01T18:26:27.685Z,66.49
2018-01-01T18:28:55.287Z,66.71
2018-01-01T18:31:22.967Z,66.51
2018-01-01T18:33:50.579Z,66.29
2018-01-01T18:36:18.219Z,66.21
2018-01-01T18:38:45.832Z,66.39
2018-01-01T18:41:13.440Z,66.19
2018-01-01T18:43:41.060Z,66.37
2018-01-01T18:46:08.693Z,66.56
2018-01-01T18:48:37.206Z,66.50
2018-01-01T18:51:04.836Z,67.02
2018-01-01T18:53:32.438Z,67.04
2018-01-01T18:56:00.086Z,67.11
2018-01-01T18:58:28.123Z,66.97
2018-01-01T19:00:55.709Z,67.16
2018-01-01T19:03:23.759Z,67.08
2018-01-01T19:05:51.405Z,67.26
2018-01-01T19:08:19.009Z,67.55
2018-01-01T19:10:46.672Z,67.83
2018-01-01T19:13:14.302Z,67.74
2018-01-01T19:15:41.900Z,68.09
2018-01-01T19:18:09.545Z,68.30
2018-01-01T19:20:37.188Z,68.62
2018-01-01T19:23:04.816Z,68.68
2018-01-01T19:25:32.938Z,68.55
2018-01-01T19:28:00.612Z,68.46
2018-01-01T19:30:28.231Z,68.92
2018-01-01T19:32:55.862Z,68.80
2018-01-01T19:35:24.609Z,68.23
2018-01-01T19:37:53.261Z,68.67
2018-01-01T19:40:20.856Z,68.67
2018-01-01T19:42:48.822Z,69.24
2018-01-01T19:45:16.400Z,69.40
2018-01-01T19:47:44.050Z,69.58
2018-01-01T19:50:11.685Z,69.74
2018-01-01T19:52:39.272Z,70.20
2018-01-01T19:55:06.932Z,70.38
2018-01-01T19:57:34.508Z,70.52
2018-01-01T20:00:02.179Z,70.63
2018-01-01T20:02:29.811Z,70.55
2018-01-01T20:04:57.399Z,70.37
2018-01-01T20:07:25.011Z,69.72
2018-01-01T20:09:53.796Z,69.55
2018-01-01T20:12:21.482Z,69.38
2018-01-01T20:14:49.086Z,69.09
2018-01-01T20:17:16.748Z,69.15
2018-01-01T20:19:44.368Z,69.20
2018-01-01T20:22:12.271Z,69.20
2018-01-01T20:24:39.912Z,69.05
2018-01-01T20:27:07.529Z,69.34
2018-01-01T20:29:35.154Z,69.32
2018-01-01T20:32:02.801Z,69.22
2018-01-01T20:34:30.445Z,69.38
2018-01-01T20:36:58.145Z,69.37
2018-01-01T20:39:25.741Z,69.36
2018-01-01T20:41:53.322Z,69.13
2018-01-01T20:44:20.939Z,69.32
2018-01-01T20:46:48.574Z,69.08
2018-01-01T20:49:16.209Z,69.00
2018-01-01T20:51:44.104Z,69.45
2018-01-01T20:54:11.728Z,69.83
2018-01-01T20:56:39.636Z,69.71
2018-01-01T20:59:07.231Z,69.52
2018-01-01T21:01:34.888Z,69.61
2018-01-01T21:04:02.492Z,70.32
2018-01-01T21:06:30.084Z,70.07
2018-01-01T21:08:57.698Z,69.74
2018-01-01T21:11:25.320Z,70.07
2018-01-01T21:13:52.967Z,70.26
2018-01-01T21:16:20.838Z,69.79
2018-01-01T21:18:48.446Z,69.81
2018-01-01T21:21:16.068Z,70.05
2018-01-01T21:23:43.929Z,69.82
2018-01-01T21:26:11.891Z,69.62
2018-01-01T21:28:39.771Z,69.61
2018-01-01T21:31:07.397Z,69.28
2018-01-01T21:33:35.037Z,69.99
2018-01-01T21:36:02.614Z,70.04
2018-01-01T21:38:30.281Z,70.14
2018-01-01T21:40:57.900Z,70.22
2018-01-01T21:43:25.525Z,69.96
2018-01-01T21:45:53.699Z,70.15
2018-01-01T21:48:21.292Z,70.47
2018-01-01T21:50:49.159Z,70.28
2018-01-01T21:53:17.124Z,70.55
2018-01-01T21:55:44.709Z,70.70
2018-01-01T21:58:12.753Z,70.67
2018-01-01T22:00:40.357Z,70.38
2018-01-01T22:03:08.281Z,70.32
2018-01-01T22:05:35.864Z,70.63
2018-01-01T22:08:03.528Z,70.51
2018-01-01T22:10:31.105Z,70.21
2018-01-01T22:12:58.757Z,70.45
2018-01-01T22:15:26.385Z,70.08
2018-01-01T22:17:53.966Z,69.98
2018-01-01T22:20:21.626Z,69.72
2018-01-01T22:22:49.203Z,69.43
2018-01-01T22:25:16.808Z,69.77
2018-01-01T22:27:44.424Z,69.65
2018-01-01T22:30:12.022Z,69.94
2018-01-01T22:32:40.038Z,69.59
2018-01-01T22:35:07.611Z,69.95
2018-01-01T22:37:35.212Z,69.97
2018-01-01T22:40:02.853Z,69.71
2018-01-01T22:42:30.477Z,69.83
2018-01-01T22:44:58.170Z,69.73
2018-01-01T22:47:25.778Z,69.63
2018-01-01T22:49:53.364Z,69.90
2018-01-01T22:52:21.070Z,69.92
2018-01-01T22:54:48.686Z,70.37
2018-01-01T22:57:16.312Z,70.34
2018-01-01T22:59:43.917Z,70.07
2018-01-01T23:02:11.776Z,69.96
2018-01-01T23:04:39.412Z,70.18
2018-01-01T23:07:07.026Z,69.98
2018-01-01T23:09:34.691Z,69.89
2018-01-01T23:12:02.522Z,69.80
2018-01-01T23:14:30.208Z,69.73
2018-01-01T23:16:57.841Z,69.64
2018-01-01T23:19:26.273Z,69.67
2018-01-01T23:21:54.312Z,69.33
2018-01-01T23:24:22.372Z,69.10
2018-01-01T23:26:50.257Z,69.25
2018-01-01T23:29:17.891Z,69.23
2018-01-01T23:31:45.485Z,69.28
2018-01-01T23:34:13.134Z,69.26
2018-01-01T23:36:40.764Z,69.12
2018-01-01T23:39:08.355Z,68.65
2018-01-01T23:41:36.018Z,68.56
2018-01-01T23:44:03.656Z,68.95
2018-01-01T23:46:31.286Z,68.95
2018-01-01T23:48:58.884Z,68.87
2018-01-01T23:51:26.512Z,68.79
2018-01-01T23:53:54.223Z,68.43
2018-01-01T23:56:21.821Z,68.43
2018-01-01T23:58:49.462Z,68.11
